Time;durP1;ratioP1;P1;durP2;ratioP2;P2;SDS_P1;SDS_P2;PMS_P1;PMS_P2;Temp;Humidity;BMP_temperature;BMP_pressure;BME280_temperature;BME280_humidity;BME280_pressure;Samples;Min_cycle;Max_cycle;Signal;HPM_P1;HPM_P2
2022/01/27 00:02:34;;;;;;;47.93;21.40;;;4.80;99.90;;;;;;5074128;28;20189;-76
2022/01/27 00:05:40;;;;;;;41.53;21.40;;;4.80;99.90;;;;;;5068431;28;20175;-76
2022/01/27 00:07:39;;;;;;;42.67;21.40;;;4.70;99.90;;;;;;5055054;28;20191;-76
2022/01/27 00:10:45;;;;;;;45.87;22.07;;;4.80;99.90;;;;;;5071910;28;20213;-76
2022/01/27 00:12:52;;;;;;;40.13;21.07;;;4.80;99.90;;;;;;5073805;28;20193;-76
2022/01/27 00:15:22;;;;;;;48.13;22.57;;;4.70;99.90;;;;;;5056224;28;20206;-76
2022/01/27 00:17:57;;;;;;;45.47;21.23;;;4.80;99.90;;;;;;5072915;28;20171;-76
2022/01/27 00:20:23;;;;;;;45.00;21.50;;;4.70;99.90;;;;;;5068686;28;20195;-76
2022/01/27 00:22:48;;;;;;;42.60;21.90;;;4.70;99.90;;;;;;5055018;28;20213;-76
2022/01/27 00:25:14;;;;;;;39.47;20.90;;;4.70;99.90;;;;;;5089471;28;20547;-76
2022/01/27 00:27:40;;;;;;;41.77;20.40;;;4.70;99.90;;;;;;5074535;28;20187;-76
2022/01/27 00:30:08;;;;;;;41.90;20.03;;;4.80;99.90;;;;;;5071419;28;20226;-76
2022/01/27 00:32:34;;;;;;;43.43;20.60;;;4.80;99.90;;;;;;5072312;28;20558;-76
2022/01/27 00:35:01;;;;;;;45.73;21.43;;;4.80;99.90;;;;;;5067034;28;20180;-76
2022/01/27 00:37:27;;;;;;;43.47;21.93;;;4.80;99.90;;;;;;5069191;28;20583;-77
2022/01/27 00:39:53;;;;;;;41.57;21.60;;;4.80;99.90;;;;;;5071398;28;20179;-76
2022/01/27 00:42:19;;;;;;;44.03;21.67;;;4.80;99.90;;;;;;5070601;28;20208;-76
2022/01/27 00:44:45;;;;;;;45.07;20.93;;;4.70;99.90;;;;;;5072996;28;20235;-76
2022/01/27 00:47:11;;;;;;;46.17;20.70;;;4.70;99.90;;;;;;5072418;28;20187;-76
2022/01/27 00:49:37;;;;;;;44.80;20.57;;;4.70;99.90;;;;;;5065890;28;20191;-77
2022/01/27 00:52:06;;;;;;;41.23;20.60;;;4.70;99.90;;;;;;5057027;28;20199;-76
2022/01/27 00:54:32;;;;;;;42.53;20.83;;;4.70;99.90;;;;;;5071178;28;20323;-76
2022/01/27 00:57:15;;;;;;;40.87;19.47;;;4.70;99.90;;;;;;5072038;28;20639;-76
2022/01/27 00:59:56;;;;;;;40.07;20.27;;;4.60;99.90;;;;;;5071239;28;20179;-76
2022/01/27 01:02:38;;;;;;;41.80;20.67;;;4.70;99.90;;;;;;5067641;28;20191;-76
2022/01/27 01:07:40;;;;;;;45.80;21.47;;;4.60;99.90;;;;;;5061118;28;20171;-77
2022/01/27 01:15:38;;;;;;;38.87;20.00;;;4.70;99.90;;;;;;5072395;28;20208;-76
2022/01/27 01:18:23;;;;;;;41.63;19.90;;;4.60;99.90;;;;;;5092125;28;20170;-76
2022/01/27 01:21:13;;;;;;;45.50;20.37;;;4.60;99.90;;;;;;5091558;28;20604;-76
2022/01/27 01:32:18;;;;;;;41.30;21.30;;;4.70;99.90;;;;;;5071365;28;20245;-77
2022/01/27 01:34:34;;;;;;;38.47;19.70;;;4.70;99.90;;;;;;5071994;28;20266;-76
2022/01/27 01:37:03;;;;;;;40.53;21.03;;;4.70;99.90;;;;;;5068002;28;20282;-77
2022/01/27 01:39:31;;;;;;;36.70;20.03;;;4.70;99.90;;;;;;5067752;28;20179;-76
2022/01/27 01:41:59;;;;;;;38.30;20.07;;;4.70;99.90;;;;;;5060170;28;20286;-77
2022/01/27 01:44:26;;;;;;;43.80;20.17;;;4.70;99.90;;;;;;5071239;28;20179;-76
2022/01/27 01:46:52;;;;;;;45.57;20.93;;;4.60;99.90;;;;;;5062708;28;20209;-76
2022/01/27 01:49:18;;;;;;;39.57;20.07;;;4.70;99.90;;;;;;5059560;28;20207;-77
2022/01/27 01:51:44;;;;;;;41.73;21.70;;;4.70;99.90;;;;;;5053965;28;20260;-76
2022/01/27 01:54:11;;;;;;;36.47;19.20;;;4.70;99.90;;;;;;5066522;28;20180;-76
2022/01/27 01:56:42;;;;;;;35.83;19.97;;;4.70;99.90;;;;;;5056371;28;20176;-76
2022/01/27 01:59:08;;;;;;;40.37;20.00;;;4.70;99.90;;;;;;5050426;28;20168;-76
2022/01/27 02:01:35;;;;;;;39.67;20.90;;;4.70;99.90;;;;;;5063045;28;20205;-76
2022/01/27 02:04:05;;;;;;;37.10;20.03;;;4.70;99.90;;;;;;5066576;28;20191;-76
2022/01/27 02:06:37;;;;;;;44.23;20.07;;;4.70;99.90;;;;;;5068495;28;20220;-76
2022/01/27 02:09:31;;;;;;;39.43;19.57;;;4.70;99.90;;;;;;5050703;28;20237;-76
2022/01/27 02:20:11;;;;;;;37.67;20.17;;;4.80;99.90;;;;;;5056640;28;20214;-76
2022/01/27 02:22:38;;;;;;;37.23;20.83;;;4.80;99.90;;;;;;5083669;28;20198;-76
2022/01/27 02:25:04;;;;;;;41.90;20.07;;;4.80;99.90;;;;;;5077699;28;20183;-76
2022/01/27 02:27:30;;;;;;;40.07;20.27;;;4.70;99.90;;;;;;5063980;28;20212;-76
2022/01/27 02:29:56;;;;;;;41.80;19.53;;;4.70;99.90;;;;;;5052071;28;20211;-76
2022/01/27 02:32:22;;;;;;;40.70;20.70;;;4.80;99.90;;;;;;5056390;28;20216;-76
2022/01/27 02:34:49;;;;;;;39.33;20.33;;;4.80;99.90;;;;;;5056042;28;20547;-76
2022/01/27 02:37:15;;;;;;;37.87;20.23;;;4.80;99.90;;;;;;5069040;28;20230;-76
2022/01/27 02:39:41;;;;;;;39.20;20.70;;;4.80;99.90;;;;;;5089599;28;20182;-76
2022/01/27 02:42:20;;;;;;;40.57;20.90;;;4.80;99.90;;;;;;5090476;28;20194;-76
2022/01/27 02:44:46;;;;;;;41.30;20.47;;;4.80;99.90;;;;;;5064873;28;20182;-76
2022/01/27 02:47:13;;;;;;;40.23;21.10;;;4.80;99.90;;;;;;5056984;28;20198;-76
2022/01/27 02:49:39;;;;;;;39.43;20.47;;;4.80;99.90;;;;;;5066204;28;20202;-76
2022/01/27 02:52:05;;;;;;;39.83;21.77;;;4.80;99.90;;;;;;5052194;28;20610;-76
2022/01/27 02:54:31;;;;;;;40.47;21.50;;;4.80;99.90;;;;;;5059389;28;20173;-76
2022/01/27 02:56:56;;;;;;;41.30;21.50;;;4.80;99.90;;;;;;5070485;28;20228;-76
2022/01/27 02:59:23;;;;;;;43.10;21.97;;;4.80;99.90;;;;;;5071194;28;20182;-77
2022/01/27 03:01:50;;;;;;;41.20;22.87;;;4.80;99.90;;;;;;5067339;28;20203;-77
2022/01/27 03:04:16;;;;;;;42.70;21.50;;;4.80;99.90;;;;;;5065845;28;20183;-77
2022/01/27 03:06:43;;;;;;;41.23;22.47;;;4.80;99.90;;;;;;5068148;28;20638;-77
2022/01/27 03:09:08;;;;;;;43.50;23.20;;;4.80;99.90;;;;;;5066821;28;20211;-77
2022/01/27 03:11:42;;;;;;;37.73;22.03;;;4.80;99.90;;;;;;5071620;28;20197;-77
2022/01/27 03:14:08;;;;;;;41.80;22.50;;;4.80;99.90;;;;;;5067741;28;20706;-77
2022/01/27 03:16:35;;;;;;;39.17;20.93;;;4.80;99.90;;;;;;5051875;28;20292;-78
2022/01/27 03:19:00;;;;;;;42.77;22.50;;;4.80;99.90;;;;;;5074036;28;20591;-77
2022/01/27 03:21:27;;;;;;;34.90;20.13;;;4.80;99.90;;;;;;5084442;28;20201;-78
2022/01/27 03:23:53;;;;;;;36.03;20.80;;;4.80;99.90;;;;;;5094355;28;20182;-77
2022/01/27 03:26:19;;;;;;;38.33;21.03;;;4.80;99.90;;;;;;5085208;28;20273;-77
2022/01/27 03:28:46;;;;;;;37.57;19.77;;;4.80;99.90;;;;;;5058968;28;20206;-76
2022/01/27 03:31:13;;;;;;;38.90;20.47;;;4.80;99.90;;;;;;5063473;28;20210;-77
2022/01/27 03:33:39;;;;;;;39.27;20.43;;;4.80;99.90;;;;;;5053982;28;20182;-77
2022/01/27 03:36:05;;;;;;;36.60;20.23;;;4.80;99.90;;;;;;5063476;28;20270;-76
2022/01/27 03:38:31;;;;;;;35.93;21.47;;;4.80;99.90;;;;;;5069216;28;20557;-78
2022/01/27 03:40:58;;;;;;;35.87;20.97;;;4.80;99.90;;;;;;5062426;28;20203;-77
2022/01/27 03:43:23;;;;;;;35.63;18.97;;;4.80;99.90;;;;;;5073142;28;20175;-76
2022/01/27 03:45:49;;;;;;;38.57;21.07;;;4.80;99.90;;;;;;5065318;28;20178;-76
2022/01/27 03:48:15;;;;;;;36.40;20.17;;;4.80;99.90;;;;;;5073162;28;20264;-76
2022/01/27 03:50:40;;;;;;;39.20;20.73;;;4.80;99.90;;;;;;5060143;28;20282;-77
2022/01/27 03:53:06;;;;;;;34.47;19.17;;;4.80;99.90;;;;;;5056246;28;20631;-77
2022/01/27 03:55:31;;;;;;;32.87;19.20;;;4.80;99.90;;;;;;5063128;28;20229;-76
2022/01/27 03:57:57;;;;;;;33.83;19.07;;;4.90;99.90;;;;;;5058799;28;20775;-76
2022/01/27 04:00:23;;;;;;;36.13;19.80;;;4.90;99.90;;;;;;5058499;28;20222;-77
2022/01/27 04:03:09;;;;;;;34.53;19.23;;;4.90;99.90;;;;;;5061355;28;20171;-76
2022/01/27 04:05:40;;;;;;;32.07;19.27;;;4.90;99.90;;;;;;5072998;28;20175;-77
2022/01/27 04:08:10;;;;;;;31.13;18.57;;;4.90;99.90;;;;;;5055002;28;20182;-77
2022/01/27 04:10:37;;;;;;;40.07;20.20;;;4.90;99.90;;;;;;5072399;28;20205;-77
2022/01/27 04:13:05;;;;;;;34.13;19.17;;;4.80;99.90;;;;;;5073098;28;20211;-76
2022/01/27 04:15:32;;;;;;;36.77;19.23;;;4.90;99.90;;;;;;5064502;28;20171;-77
2022/01/27 04:17:57;;;;;;;31.83;18.47;;;4.90;99.90;;;;;;5071367;28;20197;-77
2022/01/27 04:20:23;;;;;;;32.27;18.37;;;4.90;99.90;;;;;;5060122;28;20206;-77
2022/01/27 04:22:49;;;;;;;34.53;19.13;;;4.90;99.90;;;;;;5052611;28;20179;-77
2022/01/27 04:25:15;;;;;;;35.87;19.70;;;5.00;99.90;;;;;;5052753;28;20182;-77
2022/01/27 04:27:46;;;;;;;30.00;19.00;;;4.90;99.90;;;;;;5071271;28;20186;-76
2022/01/27 04:30:16;;;;;;;34.27;19.60;;;4.90;99.90;;;;;;5071155;28;20221;-77
2022/01/27 04:32:48;;;;;;;30.50;17.97;;;4.90;99.90;;;;;;5068588;28;20214;-76
2022/01/27 04:35:18;;;;;;;34.20;18.07;;;4.90;99.90;;;;;;5073230;28;20178;-76
2022/01/27 04:37:57;;;;;;;31.40;18.20;;;4.90;99.90;;;;;;5069092;28;20199;-76
2022/01/27 04:40:29;;;;;;;31.80;18.80;;;4.90;99.90;;;;;;5066890;28;20206;-76
2022/01/27 04:48:26;;;;;;;30.23;18.47;;;5.00;99.90;;;;;;5066269;28;20203;-76
2022/01/27 04:50:53;;;;;;;29.07;18.13;;;5.00;99.90;;;;;;5059791;28;20289;-77
2022/01/27 04:53:32;;;;;;;33.47;18.30;;;5.00;99.90;;;;;;5066714;28;20179;-76
2022/01/27 04:55:59;;;;;;;30.87;17.73;;;5.00;99.90;;;;;;5071436;28;20554;-76
2022/01/27 04:58:31;;;;;;;33.17;18.43;;;5.00;99.90;;;;;;5092367;28;20175;-77
2022/01/27 05:01:02;;;;;;;33.07;18.30;;;5.00;99.90;;;;;;5059401;28;20207;-76
2022/01/27 05:03:52;;;;;;;33.87;19.60;;;4.90;99.90;;;;;;5063437;28;20228;-76
2022/01/27 05:06:16;;;;;;;30.33;18.20;;;5.00;99.90;;;;;;5060900;28;20176;-76
2022/01/27 05:08:42;;;;;;;32.07;18.80;;;5.00;99.90;;;;;;5051082;28;20837;-76
2022/01/27 05:11:31;;;;;;;31.13;17.53;;;5.00;99.90;;;;;;5051548;28;20190;-76
2022/01/27 05:14:10;;;;;;;36.30;19.10;;;5.00;99.90;;;;;;5065231;28;20316;-76
2022/01/27 05:16:36;;;;;;;33.37;17.63;;;5.00;99.90;;;;;;5052181;28;20183;-76
2022/01/27 05:19:02;;;;;;;30.67;18.37;;;5.00;99.90;;;;;;5052800;28;20195;-77
2022/01/27 05:21:27;;;;;;;30.33;18.30;;;5.00;99.90;;;;;;5059934;28;20248;-76
2022/01/27 05:23:53;;;;;;;31.50;18.30;;;5.00;99.90;;;;;;5066003;28;20189;-77
2022/01/27 05:26:19;;;;;;;28.50;17.60;;;5.00;99.90;;;;;;5063462;28;20190;-77
2022/01/27 05:28:44;;;;;;;32.10;18.70;;;5.00;99.90;;;;;;5054794;28;20230;-77
2022/01/27 05:31:10;;;;;;;31.13;17.97;;;5.00;99.90;;;;;;5059331;28;20225;-77
2022/01/27 05:33:35;;;;;;;30.97;18.83;;;4.90;99.90;;;;;;5073537;28;20185;-77
2022/01/27 05:36:01;;;;;;;29.70;18.10;;;4.90;99.90;;;;;;5062185;28;20277;-77
2022/01/27 05:38:27;;;;;;;31.17;18.67;;;4.90;99.90;;;;;;5069335;28;20179;-77
2022/01/27 05:40:53;;;;;;;33.37;18.10;;;4.90;99.90;;;;;;5067511;28;20272;-77
2022/01/27 05:43:18;;;;;;;29.83;18.73;;;4.90;99.90;;;;;;5050981;28;20201;-77
2022/01/27 05:45:44;;;;;;;32.90;17.73;;;4.90;99.90;;;;;;5052603;28;20673;-76
2022/01/27 05:48:10;;;;;;;36.90;19.53;;;4.90;99.90;;;;;;5068414;28;20185;-76
2022/01/27 05:50:36;;;;;;;33.97;18.80;;;4.90;99.90;;;;;;5057205;28;20202;-77
2022/01/27 05:53:02;;;;;;;32.13;19.07;;;4.90;99.90;;;;;;5064319;28;20687;-77
2022/01/27 05:55:28;;;;;;;30.77;18.73;;;4.90;99.90;;;;;;5056003;28;20171;-77
2022/01/27 05:57:53;;;;;;;32.97;18.27;;;4.90;99.90;;;;;;5065635;28;20224;-77
2022/01/27 06:00:19;;;;;;;33.90;20.10;;;4.90;99.90;;;;;;5063411;28;20203;-76
2022/01/27 06:02:45;;;;;;;32.13;18.57;;;4.90;99.90;;;;;;5055460;28;20171;-76
2022/01/27 06:05:12;;;;;;;31.93;18.40;;;4.90;99.90;;;;;;5067722;28;20553;-77
2022/01/27 06:07:38;;;;;;;33.23;18.83;;;4.90;99.90;;;;;;5070682;28;20182;-77
2022/01/27 06:10:04;;;;;;;33.40;19.20;;;4.90;99.90;;;;;;5066370;28;20210;-76
2022/01/27 06:12:30;;;;;;;33.23;18.43;;;4.90;99.90;;;;;;5053412;28;20167;-77
2022/01/27 06:14:55;;;;;;;31.83;19.53;;;4.80;99.90;;;;;;5067942;28;20175;-76
2022/01/27 06:17:21;;;;;;;36.57;19.13;;;4.80;99.90;;;;;;5091078;28;20242;-77
2022/01/27 06:19:47;;;;;;;33.23;18.47;;;4.80;99.90;;;;;;5089862;28;20181;-77
2022/01/27 06:22:14;;;;;;;31.30;18.90;;;4.80;99.90;;;;;;5077770;28;20187;-77
2022/01/27 06:24:44;;;;;;;31.13;18.60;;;4.70;99.90;;;;;;5062331;28;20201;-77
2022/01/27 06:27:11;;;;;;;33.23;18.87;;;4.70;99.90;;;;;;5071967;28;20638;-76
2022/01/27 06:29:38;;;;;;;29.10;17.97;;;4.70;99.90;;;;;;5073524;28;20210;-77
2022/01/27 06:32:04;;;;;;;33.03;19.27;;;4.70;99.90;;;;;;5081249;28;20209;-77
2022/01/27 06:34:30;;;;;;;32.70;19.00;;;4.70;99.90;;;;;;5055642;28;20190;-77
2022/01/27 06:36:56;;;;;;;33.43;19.40;;;4.70;99.90;;;;;;5070133;28;20183;-77
2022/01/27 06:39:21;;;;;;;33.37;20.10;;;4.70;99.90;;;;;;5067565;28;20186;-77
2022/01/27 06:41:47;;;;;;;32.60;19.13;;;4.70;99.90;;;;;;5067942;28;20206;-76
2022/01/27 06:44:13;;;;;;;31.20;18.60;;;4.70;99.90;;;;;;5069980;28;20201;-76
2022/01/27 06:46:39;;;;;;;29.90;18.17;;;4.70;99.90;;;;;;5069877;28;20186;-77
2022/01/27 06:49:05;;;;;;;33.03;19.67;;;4.70;99.90;;;;;;5062450;28;20211;-76
2022/01/27 06:51:32;;;;;;;29.90;19.33;;;4.70;99.90;;;;;;5063992;28;20193;-77
2022/01/27 06:53:59;;;;;;;34.43;19.77;;;4.70;99.90;;;;;;5054684;28;20186;-77
2022/01/27 06:56:25;;;;;;;33.93;18.33;;;4.70;99.90;;;;;;5064826;28;21063;-78
2022/01/27 06:58:51;;;;;;;33.60;20.20;;;4.70;99.90;;;;;;5059340;28;20785;-77
2022/01/27 07:01:17;;;;;;;30.47;18.93;;;4.70;99.90;;;;;;5063953;28;20203;-77
2022/01/27 07:03:43;;;;;;;35.10;18.30;;;4.60;99.90;;;;;;5070028;28;20541;-77
2022/01/27 07:06:09;;;;;;;31.60;19.30;;;4.60;99.90;;;;;;5066918;28;20193;-77
2022/01/27 07:08:34;;;;;;;30.00;19.07;;;4.60;99.90;;;;;;5060866;28;20296;-77
2022/01/27 07:11:00;;;;;;;31.93;18.70;;;4.60;99.90;;;;;;5069985;28;20208;-77
2022/01/27 07:13:26;;;;;;;28.97;19.13;;;4.60;99.90;;;;;;5070134;28;20193;-77
2022/01/27 07:15:51;;;;;;;29.93;19.23;;;4.60;99.90;;;;;;5067559;28;20183;-77
2022/01/27 07:18:17;;;;;;;37.23;19.97;;;4.60;99.90;;;;;;5058658;28;20174;-77
2022/01/27 07:20:45;;;;;;;32.23;18.40;;;4.60;99.90;;;;;;5035772;23;20220;-71
2022/01/27 07:23:11;;;;;;;49.73;20.20;;;4.60;99.90;;;;;;5018631;28;20196;-71
2022/01/27 07:25:36;;;;;;;32.83;18.70;;;4.60;99.90;;;;;;5023915;28;20241;-71
2022/01/27 07:28:03;;;;;;;29.07;18.33;;;4.70;99.90;;;;;;5009609;28;20605;-71
2022/01/27 07:30:29;;;;;;;30.43;17.73;;;4.70;99.90;;;;;;5006836;28;20209;-71
2022/01/27 07:32:54;;;;;;;31.53;18.03;;;4.70;99.90;;;;;;4989561;28;20183;-72
2022/01/27 07:35:20;;;;;;;27.50;18.17;;;4.60;99.90;;;;;;4990509;28;20182;-71
2022/01/27 07:37:46;;;;;;;26.93;17.80;;;4.70;99.90;;;;;;4988544;28;20178;-71
2022/01/27 07:40:12;;;;;;;26.33;16.60;;;4.70;99.90;;;;;;4992956;28;20650;-71
2022/01/27 07:42:38;;;;;;;28.43;16.00;;;4.70;99.90;;;;;;4994871;28;20268;-71
2022/01/27 07:45:05;;;;;;;26.90;16.13;;;4.70;99.90;;;;;;4990194;28;20231;-71
2022/01/27 07:47:31;;;;;;;25.17;16.23;;;4.80;99.90;;;;;;4993057;28;20195;-71
2022/01/27 07:49:56;;;;;;;42.33;26.67;;;4.80;99.90;;;;;;5023979;28;20216;-71
2022/01/27 07:52:22;;;;;;;26.00;16.73;;;4.70;99.90;;;;;;4990215;28;20213;-71
2022/01/27 07:54:48;;;;;;;21.77;14.97;;;4.80;99.90;;;;;;4992266;28;20182;-71
2022/01/27 07:57:13;;;;;;;23.20;14.80;;;4.80;99.90;;;;;;4995513;28;20178;-71
2022/01/27 07:59:40;;;;;;;21.27;14.93;;;4.80;99.90;;;;;;4997985;28;20457;-72
2022/01/27 08:02:05;;;;;;;23.57;14.57;;;4.80;99.90;;;;;;4986426;28;20186;-72
2022/01/27 08:04:31;;;;;;;21.97;14.57;;;4.80;99.90;;;;;;4990082;28;20186;-71
2022/01/27 08:06:57;;;;;;;23.03;14.30;;;4.80;99.90;;;;;;4992481;28;20201;-71
2022/01/27 08:09:23;;;;;;;20.63;13.23;;;4.80;99.90;;;;;;4991142;28;20209;-71
2022/01/27 08:11:49;;;;;;;20.20;13.20;;;4.80;99.90;;;;;;4992829;28;20200;-71
2022/01/27 08:14:15;;;;;;;22.87;13.93;;;4.80;99.90;;;;;;4996420;28;20185;-71
2022/01/27 08:16:41;;;;;;;23.63;14.37;;;4.90;99.90;;;;;;5010018;28;20216;-71
2022/01/27 08:19:07;;;;;;;19.00;12.57;;;4.90;99.90;;;;;;4991661;28;20197;-72
2022/01/27 08:21:33;;;;;;;19.50;13.57;;;4.90;99.90;;;;;;4991928;28;20292;-72
2022/01/27 08:23:59;;;;;;;18.97;12.93;;;4.90;99.90;;;;;;4991702;28;20265;-72
2022/01/27 08:26:39;;;;;;;20.73;13.37;;;4.90;99.90;;;;;;4996156;28;20190;-72
2022/01/27 08:29:12;;;;;;;18.47;12.50;;;5.00;99.90;;;;;;4981548;28;20253;-72
2022/01/27 08:31:54;;;;;;;16.43;11.10;;;5.00;99.90;;;;;;4981820;28;20182;-72
2022/01/27 08:34:29;;;;;;;18.83;10.90;;;5.10;99.90;;;;;;4990391;28;20277;-71
2022/01/27 08:36:56;;;;;;;15.87;10.77;;;5.10;99.90;;;;;;4992530;28;20661;-72
2022/01/27 08:39:22;;;;;;;15.90;10.63;;;5.10;99.90;;;;;;4989284;28;20196;-72
2022/01/27 08:41:48;;;;;;;16.93;10.70;;;5.10;99.90;;;;;;4990926;28;20186;-72
2022/01/27 08:44:13;;;;;;;13.97;9.83;;;5.10;99.90;;;;;;4993692;28;20724;-72
2022/01/27 08:46:39;;;;;;;15.77;10.13;;;5.10;99.90;;;;;;4992597;28;20240;-72
2022/01/27 08:49:06;;;;;;;14.53;9.70;;;5.20;99.90;;;;;;4990873;28;20212;-72
2022/01/27 08:51:32;;;;;;;15.40;10.03;;;5.20;99.90;;;;;;5001060;28;20209;-72
2022/01/27 08:54:28;;;;;;;15.97;9.93;;;5.20;99.90;;;;;;4994565;28;20649;-72
2022/01/27 08:56:54;;;;;;;15.43;10.07;;;5.30;99.90;;;;;;4982216;28;20200;-72
2022/01/27 08:59:19;;;;;;;13.97;10.20;;;5.30;99.90;;;;;;4992255;28;20187;-73
2022/01/27 09:01:46;;;;;;;14.87;9.93;;;5.40;99.90;;;;;;4992092;28;20186;-73
2022/01/27 09:04:12;;;;;;;12.90;9.37;;;5.40;99.90;;;;;;4992935;28;20272;-73
2022/01/27 09:06:38;;;;;;;15.60;10.13;;;5.40;99.90;;;;;;4992654;28;20618;-73
2022/01/27 09:09:04;;;;;;;13.90;9.17;;;5.40;99.90;;;;;;4992522;28;20207;-72
2022/01/27 09:11:31;;;;;;;12.37;9.03;;;5.40;99.90;;;;;;5001502;28;20202;-74
2022/01/27 09:14:00;;;;;;;16.63;9.43;;;5.40;99.90;;;;;;5014560;28;20181;-73
2022/01/27 09:16:28;;;;;;;11.43;8.03;;;5.50;99.90;;;;;;5005972;28;20212;-72
2022/01/27 09:18:56;;;;;;;11.90;8.33;;;5.50;99.90;;;;;;4995117;28;20216;-72
2022/01/27 09:21:25;;;;;;;17.40;8.77;;;5.50;99.90;;;;;;4986463;28;20235;-72
2022/01/27 09:23:57;;;;;;;11.57;8.13;;;5.50;99.90;;;;;;4984742;28;20544;-72
2022/01/27 09:29:06;;;;;;;14.33;7.97;;;5.60;99.90;;;;;;4981713;28;20209;-73
2022/01/27 09:31:33;;;;;;;21.63;8.97;;;5.60;99.90;;;;;;4983015;28;20209;-75
2022/01/27 09:33:58;;;;;;;11.40;7.27;;;5.60;99.90;;;;;;4984632;28;20224;-73
2022/01/27 09:36:24;;;;;;;12.47;8.10;;;5.70;99.90;;;;;;4986347;28;20271;-74
2022/01/27 09:38:50;;;;;;;21.77;9.07;;;5.70;99.90;;;;;;4987623;28;20263;-74
2022/01/27 09:41:19;;;;;;;10.47;8.10;;;5.70;99.90;;;;;;4986823;28;20210;-73
2022/01/27 09:43:47;;;;;;;10.33;8.13;;;5.70;99.90;;;;;;4987949;28;20190;-74
2022/01/27 09:46:16;;;;;;;10.90;8.27;;;5.70;99.90;;;;;;5004676;28;20245;-74
2022/01/27 09:48:47;;;;;;;11.50;8.73;;;5.80;99.90;;;;;;4986940;28;20197;-74
2022/01/27 09:53:45;;;;;;;11.93;8.57;;;5.80;99.90;;;;;;4989403;28;20211;-74
2022/01/27 09:56:11;;;;;;;13.50;9.67;;;5.80;99.90;;;;;;5003899;28;20178;-74
2022/01/27 09:58:37;;;;;;;13.33;9.30;;;5.90;99.90;;;;;;4985730;28;20548;-74
2022/01/27 10:01:04;;;;;;;12.70;8.67;;;5.90;99.90;;;;;;4988665;28;20217;-74
2022/01/27 10:03:33;;;;;;;15.07;9.47;;;5.90;99.90;;;;;;4989963;28;20217;-76
2022/01/27 10:06:13;;;;;;;15.27;10.13;;;6.00;99.90;;;;;;4989453;28;20228;-75
2022/01/27 10:08:41;;;;;;;15.93;10.47;;;6.00;99.90;;;;;;4994343;28;20193;-75
2022/01/27 10:11:18;;;;;;;17.17;10.53;;;6.10;99.90;;;;;;4986584;28;20228;-75
2022/01/27 10:13:46;;;;;;;22.00;11.80;;;6.10;99.90;;;;;;4986001;28;20201;-75
2022/01/27 10:16:34;;;;;;;20.10;10.90;;;6.20;99.90;;;;;;4985296;28;20182;-74
2022/01/27 10:19:08;;;;;;;16.67;11.03;;;6.20;99.90;;;;;;4986103;28;20201;-75
2022/01/27 10:21:35;;;;;;;17.50;11.47;;;6.20;99.90;;;;;;4984203;28;20585;-75
2022/01/27 10:24:25;;;;;;;14.73;11.30;;;6.20;99.90;;;;;;4986717;28;20193;-75
2022/01/27 10:27:45;;;;;;;16.67;11.40;;;6.20;99.90;;;;;;4985663;28;20200;-75
2022/01/27 10:32:51;;;;;;;20.33;11.03;;;6.30;99.90;;;;;;4987916;28;20182;-75
2022/01/27 10:35:21;;;;;;;17.60;11.43;;;6.30;99.90;;;;;;4985474;28;20631;-75
2022/01/27 10:37:52;;;;;;;17.13;11.73;;;6.30;99.90;;;;;;4984900;28;20178;-75
2022/01/27 10:40:32;;;;;;;19.10;11.77;;;6.30;99.90;;;;;;4985951;28;20205;-75
2022/01/27 10:43:10;;;;;;;16.83;11.47;;;6.40;99.90;;;;;;4984249;28;20189;-76
2022/01/27 10:45:38;;;;;;;16.57;11.50;;;6.40;99.90;;;;;;4986922;28;20189;-76
2022/01/27 10:48:20;;;;;;;14.90;10.87;;;6.40;99.90;;;;;;4984833;28;20944;-75
2022/01/27 10:50:51;;;;;;;17.47;11.00;;;6.40;99.90;;;;;;4984901;28;20239;-75
2022/01/27 10:53:18;;;;;;;19.67;11.20;;;6.50;99.90;;;;;;4984985;28;20264;-75
2022/01/27 10:55:45;;;;;;;17.13;11.10;;;6.50;99.90;;;;;;4986392;28;20192;-74
2022/01/27 10:58:27;;;;;;;14.17;10.53;;;6.50;99.90;;;;;;4985539;28;20189;-72
2022/01/27 11:00:58;;;;;;;13.13;10.43;;;6.50;99.90;;;;;;4986471;28;20197;-72
2022/01/27 11:03:24;;;;;;;18.23;10.90;;;6.50;99.90;;;;;;4986839;28;20214;-72
2022/01/27 11:05:50;;;;;;;15.27;10.40;;;6.50;99.90;;;;;;4985196;28;20268;-73
2022/01/27 11:08:19;;;;;;;14.67;10.67;;;6.60;99.90;;;;;;4984535;28;20188;-73
2022/01/27 11:10:48;;;;;;;15.40;10.40;;;6.60;99.90;;;;;;4983996;28;20215;-73
2022/01/27 11:13:16;;;;;;;16.57;10.87;;;6.60;99.90;;;;;;4985827;28;20680;-73
2022/01/27 11:15:42;;;;;;;19.37;11.27;;;6.60;99.90;;;;;;4985932;28;20708;-73
2022/01/27 11:18:09;;;;;;;46.40;14.93;;;6.60;99.90;;;;;;4984745;28;20181;-73
2022/01/27 11:25:55;;;;;;;17.60;11.13;;;6.70;99.90;;;;;;4986842;28;20599;-73
2022/01/27 11:28:21;;;;;;;17.00;11.30;;;6.80;99.90;;;;;;4983560;28;20240;-74
2022/01/27 11:31:25;;;;;;;19.40;10.50;;;6.80;99.90;;;;;;4983899;28;20728;-76
2022/01/27 11:34:04;;;;;;;20.93;10.17;;;6.90;99.90;;;;;;4982739;28;20188;-75
2022/01/27 11:36:30;;;;;;;18.17;10.57;;;6.90;99.90;;;;;;4981348;28;20181;-74
2022/01/27 11:38:57;;;;;;;18.20;9.50;;;6.90;99.90;;;;;;4986213;28;20193;-75
2022/01/27 11:41:48;;;;;;;15.37;10.07;;;7.00;99.90;;;;;;4986386;28;20680;-73
2022/01/27 11:44:23;;;;;;;16.67;9.43;;;7.00;99.90;;;;;;4988591;28;20737;-75
2022/01/27 11:47:16;;;;;;;19.67;9.37;;;7.00;99.90;;;;;;4987683;28;20181;-75
2022/01/27 11:52:32;;;;;;;15.53;9.17;;;7.20;99.90;;;;;;4990737;28;20193;-74
2022/01/27 11:55:24;;;;;;;18.53;9.43;;;7.20;99.90;;;;;;4990079;28;20192;-75
2022/01/27 11:57:51;;;;;;;15.63;8.10;;;7.20;99.90;;;;;;5006792;28;20182;-75
2022/01/27 12:00:28;;;;;;;18.70;8.33;;;7.30;99.90;;;;;;5004820;28;20201;-76
2022/01/27 12:03:03;;;;;;;18.67;9.17;;;7.40;99.90;;;;;;4989582;28;20185;-75
2022/01/27 12:05:30;;;;;;;16.27;8.20;;;7.40;99.90;;;;;;4990022;28;20189;-75
2022/01/27 12:08:17;;;;;;;16.87;8.30;;;7.50;99.90;;;;;;4991111;28;20223;-75
2022/01/27 12:11:00;;;;;;;17.27;8.03;;;7.60;99.90;;;;;;4990874;28;20214;-75
2022/01/27 12:13:39;;;;;;;17.27;8.10;;;7.60;99.90;;;;;;4995456;28;20172;-74
2022/01/27 12:19:12;;;;;;;14.87;7.73;;;7.60;99.90;;;;;;4987828;28;20208;-74
2022/01/27 12:21:54;;;;;;;13.07;6.80;;;7.70;99.90;;;;;;4988753;28;20244;-74
2022/01/27 12:24:31;;;;;;;12.43;7.53;;;7.70;99.90;;;;;;4987501;28;20244;-74
2022/01/27 12:26:57;;;;;;;14.10;6.93;;;7.70;99.90;;;;;;5005554;28;20193;-74
2022/01/27 12:29:54;;;;;;;13.77;7.10;;;7.80;99.90;;;;;;4987217;28;20431;-74
2022/01/27 12:32:22;;;;;;;15.47;7.17;;;7.80;99.90;;;;;;5003918;28;20189;-74
2022/01/27 12:34:51;;;;;;;13.03;6.50;;;7.80;99.90;;;;;;4988909;28;20235;-74
2022/01/27 12:37:20;;;;;;;16.87;6.77;;;7.80;99.90;;;;;;5004669;28;20240;-74
2022/01/27 12:39:53;;;;;;;15.17;6.63;;;7.90;99.90;;;;;;5000903;28;20263;-74
2022/01/27 12:42:20;;;;;;;15.10;6.27;;;7.90;99.90;;;;;;4986605;28;20194;-74
2022/01/27 12:44:56;;;;;;;14.10;6.57;;;7.90;99.90;;;;;;4989010;28;20181;-74
2022/01/27 12:47:23;;;;;;;14.77;6.13;;;7.90;99.90;;;;;;4987740;28;20188;-74
2022/01/27 12:49:51;;;;;;;9.73;5.50;;;7.90;99.90;;;;;;4985019;28;20213;-74
2022/01/27 12:52:26;;;;;;;12.00;5.73;;;8.00;99.90;;;;;;5003888;28;20178;-74
2022/01/27 12:54:53;;;;;;;16.40;6.10;;;8.00;99.90;;;;;;4988641;28;20552;-74
2022/01/27 12:57:24;;;;;;;14.87;5.50;;;8.00;99.90;;;;;;4988547;28;20185;-75
2022/01/27 12:59:52;;;;;;;9.10;5.63;;;8.10;99.90;;;;;;4986647;28;20198;-74
2022/01/27 13:02:19;;;;;;;13.00;5.27;;;8.10;99.90;;;;;;5003775;28;20193;-74
2022/01/27 13:04:46;;;;;;;15.23;5.00;;;8.10;99.90;;;;;;5004865;28;20177;-74
2022/01/27 13:07:11;;;;;;;15.73;5.60;;;8.10;99.90;;;;;;5005617;28;20272;-74
2022/01/27 13:09:39;;;;;;;12.13;5.73;;;8.10;99.90;;;;;;5003768;28;20292;-74
2022/01/27 13:12:18;;;;;;;14.43;5.87;;;8.10;99.90;;;;;;4988805;28;20185;-74
2022/01/27 13:15:14;;;;;;;15.17;5.00;;;8.10;99.90;;;;;;4986617;28;20248;-74
2022/01/27 13:20:42;;;;;;;16.97;5.03;;;8.10;99.90;;;;;;4996200;28;20570;-74
2022/01/27 13:25:52;;;;;;;14.30;5.07;;;8.10;99.90;;;;;;4989845;28;20178;-75
2022/01/27 13:28:22;;;;;;;10.03;4.50;;;8.10;99.90;;;;;;4989012;28;20177;-74
2022/01/27 13:30:52;;;;;;;10.17;4.70;;;8.20;99.90;;;;;;5005443;28;20194;-74
2022/01/27 13:33:20;;;;;;;12.60;4.10;;;8.20;99.90;;;;;;4985890;28;20546;-73
2022/01/27 13:35:47;;;;;;;10.00;3.90;;;8.20;99.90;;;;;;4987049;28;20193;-73
2022/01/27 13:38:24;;;;;;;12.20;3.87;;;8.20;99.90;;;;;;5002158;28;20204;-73
2022/01/27 13:43:47;;;;;;;9.30;3.50;;;8.30;99.90;;;;;;4985241;28;20196;-73
2022/01/27 13:46:32;;;;;;;11.03;4.00;;;8.30;99.90;;;;;;5003139;28;20516;-73
2022/01/27 13:49:13;;;;;;;13.77;4.10;;;8.40;99.90;;;;;;4986889;28;20217;-73